createdAt,value
2023-09-06T00:00:52.221Z,21.85
2023-09-06T00:03:18.931Z,21.83
2023-09-06T00:05:45.721Z,21.79
2023-09-06T00:08:16.113Z,21.79
2023-09-06T00:10:43.193Z,21.80
2023-09-06T00:13:10.197Z,22.64
2023-09-06T00:15:36.780Z,22.91
2023-09-06T00:18:04.542Z,22.47
2023-09-06T00:20:31.679Z,22.36
2023-09-06T00:22:59.024Z,22.22
2023-09-06T00:25:26.085Z,22.09
2023-09-06T00:27:52.804Z,22.04
2023-09-06T00:30:22.360Z,22.02
2023-09-06T00:33:26.755Z,23.50
2023-09-06T00:35:53.445Z,22.86
2023-09-06T00:38:21.647Z,22.53
2023-09-06T00:40:51.309Z,22.40
2023-09-06T00:43:17.866Z,22.36
2023-09-06T00:45:49.224Z,22.31
2023-09-06T00:48:18.163Z,22.12
2023-09-06T00:50:44.699Z,22.12
2023-09-06T00:53:11.302Z,23.57
2023-09-06T00:55:47.423Z,23.00
2023-09-06T00:58:16.920Z,22.59
2023-09-06T01:00:44.341Z,22.39
2023-09-06T01:03:11.123Z,22.31
2023-09-06T01:05:41.932Z,22.38
2023-09-06T01:08:08.565Z,22.15
2023-09-06T01:10:35.350Z,22.05
2023-09-06T01:13:02.170Z,23.46
2023-09-06T01:15:29.351Z,23.06
2023-09-06T01:17:56.064Z,22.76
2023-09-06T01:20:26.185Z,22.47
2023-09-06T01:22:54.168Z,22.35
2023-09-06T01:25:20.877Z,22.40
2023-09-06T01:27:48.195Z,22.22
2023-09-06T01:30:15.474Z,22.82
2023-09-06T01:32:42.366Z,23.39
2023-09-06T01:35:11.343Z,22.92
2023-09-06T01:37:38.631Z,22.64
2023-09-06T01:40:22.802Z,22.45
2023-09-06T01:42:49.380Z,22.33
2023-09-06T01:45:18.759Z,22.40
2023-09-06T01:47:46.289Z,22.26
2023-09-06T01:50:12.896Z,23.74
2023-09-06T01:52:41.286Z,23.11
2023-09-06T01:55:11.086Z,22.81
2023-09-06T01:57:37.756Z,22.56
2023-09-06T02:00:24.923Z,22.44
2023-09-06T02:02:51.873Z,22.31
2023-09-06T02:05:18.557Z,22.27
2023-09-06T02:07:45.600Z,23.38
2023-09-06T02:10:12.285Z,23.39
2023-09-06T02:12:39.280Z,22.91
2023-09-06T02:15:09.290Z,22.76
2023-09-06T02:17:36.170Z,22.67
2023-09-06T02:20:13.910Z,22.54
2023-09-06T02:22:43.982Z,22.34
2023-09-06T02:25:10.639Z,22.79
2023-09-06T02:27:41.747Z,23.81
2023-09-06T02:30:08.720Z,23.07
2023-09-06T02:32:35.603Z,22.82
2023-09-06T02:35:02.316Z,22.72
2023-09-06T02:37:28.858Z,22.51
2023-09-06T02:39:55.422Z,22.48
2023-09-06T02:42:22.189Z,22.48
2023-09-06T02:44:48.783Z,22.35
2023-09-06T02:47:18.551Z,23.83
2023-09-06T02:49:46.018Z,23.07
2023-09-06T02:52:22.276Z,22.15
2023-09-06T02:54:49.106Z,21.71
2023-09-06T02:57:18.181Z,21.46
2023-09-06T02:59:44.762Z,21.52
2023-09-06T03:02:14.026Z,21.70
2023-09-06T03:04:42.317Z,21.79
2023-09-06T03:07:09.891Z,21.71
2023-09-06T03:09:37.044Z,21.75
2023-09-06T03:12:24.117Z,21.75
2023-09-06T03:14:51.196Z,21.76
2023-09-06T03:17:23.866Z,21.68
2023-09-06T03:19:55.116Z,21.73
2023-09-06T03:22:24.628Z,21.72
2023-09-06T03:24:56.461Z,21.71
2023-09-06T03:27:23.075Z,21.76
2023-09-06T03:29:52.177Z,21.71
2023-09-06T03:32:19.264Z,21.70
2023-09-06T03:34:46.733Z,21.67
2023-09-06T03:37:13.897Z,21.57
2023-09-06T03:39:44.146Z,21.60
2023-09-06T03:42:10.873Z,21.64
2023-09-06T03:44:37.692Z,21.57
2023-09-06T03:47:14.817Z,21.55
2023-09-06T03:49:41.827Z,21.52
2023-09-06T03:52:08.548Z,21.45
2023-09-06T03:54:35.598Z,21.44
2023-09-06T03:57:05.584Z,21.43
2023-09-06T03:59:36.724Z,21.42
2023-09-06T04:02:04.039Z,21.40
2023-09-06T04:04:30.922Z,21.39
2023-09-06T04:06:57.506Z,21.37
2023-09-06T04:09:29.363Z,21.32
2023-09-06T04:11:59.117Z,21.33
2023-09-06T04:14:26.023Z,21.28
2023-09-06T04:16:52.758Z,21.25
2023-09-06T04:19:19.376Z,21.21
2023-09-06T04:21:49.146Z,21.25
2023-09-06T04:24:15.826Z,21.22
2023-09-06T04:26:42.322Z,22.50
2023-09-06T04:29:08.956Z,22.23
2023-09-06T04:31:35.550Z,22.00
2023-09-06T04:34:02.709Z,21.91
2023-09-06T04:36:29.623Z,22.02
2023-09-06T04:38:57.608Z,22.00
2023-09-06T04:41:24.327Z,21.91
2023-09-06T04:43:50.889Z,21.87
2023-09-06T04:46:17.490Z,21.84
2023-09-06T04:48:44.511Z,21.79
2023-09-06T04:51:11.083Z,22.09
2023-09-06T04:53:37.748Z,23.33
2023-09-06T04:56:04.792Z,22.63
2023-09-06T04:58:31.421Z,22.35
2023-09-06T05:00:58.046Z,22.36
2023-09-06T05:03:24.896Z,22.21
2023-09-06T05:05:52.406Z,22.09
2023-09-06T05:08:19.196Z,21.96
2023-09-06T05:10:45.841Z,22.01
2023-09-06T05:13:13.202Z,23.31
2023-09-06T05:15:39.862Z,22.96
2023-09-06T05:18:06.741Z,22.48
2023-09-06T05:20:38.848Z,22.33
2023-09-06T05:23:06.268Z,22.34
2023-09-06T05:25:32.897Z,22.18
2023-09-06T05:28:00.366Z,22.19
2023-09-06T05:30:27.089Z,22.79
2023-09-06T05:32:56.969Z,23.45
2023-09-06T05:35:23.953Z,22.94
2023-09-06T05:37:50.529Z,22.76
2023-09-06T05:40:23.680Z,22.59
2023-09-06T05:42:52.808Z,22.36
2023-09-06T05:45:20.062Z,22.31
2023-09-06T05:47:46.847Z,22.20
2023-09-06T05:50:13.476Z,22.43
2023-09-06T05:52:39.988Z,23.71
2023-09-06T05:55:08.029Z,22.93
2023-09-06T05:57:34.678Z,22.72
2023-09-06T06:00:01.798Z,22.61
2023-09-06T06:02:31.132Z,22.43
2023-09-06T06:04:57.879Z,22.37
2023-09-06T06:07:24.545Z,22.27
2023-09-06T06:09:51.185Z,23.34
2023-09-06T06:12:23.835Z,23.34
2023-09-06T06:14:53.738Z,22.90
2023-09-06T06:17:20.605Z,22.77
2023-09-06T06:19:47.312Z,22.64
2023-09-06T06:22:13.912Z,22.50
2023-09-06T06:24:42.208Z,22.36
2023-09-06T06:27:08.968Z,22.77
2023-09-06T06:29:35.793Z,23.73
2023-09-06T06:32:02.822Z,23.09
2023-09-06T06:35:17.946Z,22.80
2023-09-06T06:37:45.797Z,22.66
2023-09-06T06:40:13.089Z,22.55
2023-09-06T06:42:40.708Z,22.44
2023-09-06T06:45:07.740Z,22.55
2023-09-06T06:47:34.762Z,23.83
2023-09-06T06:50:04.634Z,23.18
2023-09-06T06:52:37.831Z,22.88
2023-09-06T06:55:07.267Z,22.71
2023-09-06T06:57:34.866Z,22.65
2023-09-06T07:00:02.711Z,22.51
2023-09-06T07:02:29.876Z,22.40
2023-09-06T07:04:59.306Z,23.63
2023-09-06T07:07:26.288Z,23.41
2023-09-06T07:09:53.002Z,23.05
2023-09-06T07:12:19.620Z,22.88
2023-09-06T07:14:46.236Z,22.73
2023-09-06T07:17:12.888Z,22.62
2023-09-06T07:19:39.534Z,22.63
2023-09-06T07:22:06.085Z,22.80
2023-09-06T07:24:32.678Z,23.79
2023-09-06T07:26:59.270Z,23.21
2023-09-06T07:29:25.901Z,23.02
2023-09-06T07:31:52.504Z,22.80
2023-09-06T07:34:19.219Z,22.72
2023-09-06T07:36:45.800Z,22.61
2023-09-06T07:39:12.508Z,22.54
2023-09-06T07:41:42.024Z,23.73
2023-09-06T07:44:09.097Z,23.35
2023-09-06T07:46:35.771Z,22.93
2023-09-06T07:49:02.590Z,22.80
2023-09-06T07:51:29.293Z,22.59
2023-09-06T07:53:56.965Z,22.51
2023-09-06T07:56:23.650Z,22.43
2023-09-06T07:58:50.401Z,22.74
2023-09-06T08:01:19.484Z,23.76
2023-09-06T08:03:47.945Z,23.10
2023-09-06T08:06:16.041Z,22.88
2023-09-06T08:08:43.062Z,22.79
2023-09-06T08:11:09.721Z,22.65
2023-09-06T08:13:38.617Z,22.50
2023-09-06T08:16:06.925Z,22.42
2023-09-06T08:18:34.273Z,22.78
2023-09-06T08:21:01.834Z,23.70
2023-09-06T08:23:28.472Z,23.06
2023-09-06T08:25:57.525Z,22.84
2023-09-06T08:28:24.040Z,22.79
2023-09-06T08:30:51.357Z,22.54
2023-09-06T08:33:18.431Z,22.47
2023-09-06T08:35:45.051Z,22.29
2023-09-06T08:38:14.101Z,23.63
2023-09-06T08:40:41.096Z,23.34
2023-09-06T08:43:07.749Z,22.91
2023-09-06T08:45:34.363Z,22.67
2023-09-06T08:48:01.104Z,22.70
2023-09-06T08:50:27.620Z,22.50
2023-09-06T08:52:55.399Z,22.36
2023-09-06T08:55:22.000Z,23.05
2023-09-06T08:57:48.594Z,23.58
2023-09-06T09:00:15.425Z,23.04
2023-09-06T09:02:43.782Z,22.78
2023-09-06T09:05:20.679Z,22.63
2023-09-06T09:07:58.012Z,22.58
2023-09-06T09:10:27.689Z,22.45
2023-09-06T09:12:55.400Z,22.32
2023-09-06T09:15:28.282Z,23.81
2023-09-06T09:20:25.838Z,22.76
2023-09-06T09:22:53.137Z,22.60
2023-09-06T09:25:24.679Z,22.48
2023-09-06T09:27:57.950Z,22.35
2023-09-06T09:30:25.420Z,22.33
2023-09-06T09:32:59.296Z,22.24
2023-09-06T09:35:26.699Z,23.75
2023-09-06T09:37:53.646Z,23.23
2023-09-06T09:40:21.753Z,22.84
2023-09-06T09:42:57.514Z,22.67
2023-09-06T09:45:26.057Z,22.65
2023-09-06T09:47:54.462Z,22.57
2023-09-06T09:50:25.938Z,22.37
2023-09-06T09:52:52.591Z,23.35
2023-09-06T09:55:19.932Z,23.46
2023-09-06T09:57:55.907Z,23.11
2023-09-06T10:00:29.371Z,22.82
2023-09-06T10:03:03.914Z,22.65
2023-09-06T10:05:33.073Z,22.52
2023-09-06T10:07:59.691Z,22.53
2023-09-06T10:10:29.457Z,22.38
2023-09-06T10:13:02.066Z,23.42
2023-09-06T10:15:30.120Z,23.56
2023-09-06T10:17:57.000Z,22.97
2023-09-06T10:23:18.434Z,22.75
2023-09-06T10:25:59.379Z,22.52
2023-09-06T10:28:26.464Z,22.42
2023-09-06T10:31:03.203Z,23.20
2023-09-06T10:33:37.637Z,23.60
2023-09-06T10:36:13.142Z,22.99
2023-09-06T10:38:52.264Z,23.42
2023-09-06T10:41:20.135Z,24.02
2023-09-06T10:43:54.600Z,23.05
2023-09-06T10:46:23.662Z,22.34
2023-09-06T10:49:09.237Z,21.84
2023-09-06T10:51:35.731Z,21.56
2023-09-06T10:54:03.525Z,21.55
2023-09-06T10:56:30.290Z,21.61
2023-09-06T10:58:57.315Z,21.69
2023-09-06T11:01:24.034Z,21.70
2023-09-06T11:03:53.841Z,21.69
2023-09-06T11:06:20.519Z,21.67
2023-09-06T11:08:47.260Z,21.66
2023-09-06T11:11:15.522Z,21.71
2023-09-06T11:13:43.326Z,21.73
2023-09-06T11:16:14.199Z,21.75
2023-09-06T11:18:47.787Z,21.79
2023-09-06T11:21:19.143Z,21.78
2023-09-06T11:23:46.406Z,21.76
2023-09-06T11:26:13.895Z,21.74
2023-09-06T11:28:42.529Z,21.64
2023-09-06T11:31:26.664Z,21.60
2023-09-06T11:33:58.785Z,21.58
2023-09-06T11:36:29.010Z,21.57
2023-09-06T11:38:55.552Z,21.55
2023-09-06T11:41:22.268Z,21.56
2023-09-06T11:43:50.852Z,21.48
2023-09-06T11:46:18.994Z,21.44
2023-09-06T11:48:45.787Z,21.39
2023-09-06T11:51:14.716Z,21.32
2023-09-06T11:53:49.712Z,21.28
2023-09-06T11:56:21.681Z,21.32
2023-09-06T11:59:14.441Z,21.35
2023-09-06T12:01:42.318Z,21.29
2023-09-06T12:04:11.792Z,21.24
2023-09-06T12:06:42.762Z,21.23
2023-09-06T12:09:16.977Z,21.22
2023-09-06T12:11:43.583Z,21.25
2023-09-06T12:14:11.565Z,21.22
2023-09-06T12:16:38.474Z,21.89
2023-09-06T12:19:05.151Z,22.32
2023-09-06T12:21:31.845Z,22.00
2023-09-06T12:23:59.343Z,21.89
2023-09-06T12:26:26.109Z,21.82
2023-09-06T12:28:52.857Z,21.73
2023-09-06T12:31:19.454Z,21.74
2023-09-06T12:33:51.162Z,21.80
2023-09-06T12:36:18.914Z,21.78
2023-09-06T12:38:45.790Z,22.64
2023-09-06T12:41:13.067Z,23.00
2023-09-06T12:43:39.699Z,22.57
2023-09-06T12:46:08.081Z,22.42
2023-09-06T12:48:36.232Z,22.21
2023-09-06T12:51:04.459Z,22.13
2023-09-06T12:53:31.488Z,22.03
2023-09-06T12:55:58.068Z,22.12
2023-09-06T12:58:24.748Z,23.54
2023-09-06T13:00:51.346Z,22.89
2023-09-06T13:03:18.574Z,22.56
2023-09-06T13:05:47.517Z,22.56
2023-09-06T13:08:14.234Z,22.50
2023-09-06T13:10:40.880Z,22.38
2023-09-06T13:13:07.527Z,22.20
2023-09-06T13:15:34.158Z,22.99
2023-09-06T13:18:03.328Z,23.49
2023-09-06T13:20:31.274Z,23.06
2023-09-06T13:22:58.522Z,22.82
2023-09-06T13:25:25.332Z,22.75
2023-09-06T13:27:51.954Z,22.64
2023-09-06T13:30:18.617Z,22.46
2023-09-06T13:32:45.397Z,22.36
2023-09-06T13:35:12.837Z,23.76
2023-09-06T13:37:39.715Z,23.36
2023-09-06T13:40:09.070Z,22.93
2023-09-06T13:42:35.771Z,22.67
2023-09-06T13:45:02.498Z,22.54
2023-09-06T13:47:29.181Z,22.50
2023-09-06T13:49:55.796Z,22.33
2023-09-06T13:52:22.426Z,23.04
2023-09-06T13:54:49.217Z,23.57
2023-09-06T13:57:15.801Z,22.94
2023-09-06T13:59:42.802Z,22.67
2023-09-06T14:02:09.699Z,22.51
2023-09-06T14:04:36.733Z,22.53
2023-09-06T14:07:03.547Z,22.33
2023-09-06T14:09:30.167Z,22.23
2023-09-06T14:11:57.006Z,23.63
2023-09-06T14:14:25.119Z,23.18
2023-09-06T14:16:52.139Z,22.76
2023-09-06T14:19:18.951Z,22.58
2023-09-06T14:21:48.483Z,22.44
2023-09-06T14:24:15.573Z,22.44
2023-09-06T14:26:44.773Z,22.31
2023-09-06T14:29:14.643Z,23.68
2023-09-06T14:31:41.634Z,23.29
2023-09-06T14:34:08.373Z,22.79
2023-09-06T14:36:35.092Z,22.59
2023-09-06T14:39:02.613Z,22.41
2023-09-06T14:41:29.388Z,22.52
2023-09-06T14:43:56.793Z,22.34
2023-09-06T14:46:23.765Z,23.11
2023-09-06T14:48:50.525Z,23.52
2023-09-06T14:51:17.292Z,23.11
2023-09-06T14:53:44.352Z,22.77
2023-09-06T14:56:11.378Z,22.54
2023-09-06T14:58:38.033Z,22.58
2023-09-06T15:01:06.373Z,22.41
2023-09-06T15:03:36.349Z,22.21
2023-09-06T15:06:47.914Z,23.70
2023-09-06T15:09:27.012Z,21.67
2023-09-06T15:11:56.798Z,21.29
2023-09-06T15:14:30.044Z,21.51
2023-09-06T15:16:59.413Z,21.15
2023-09-06T15:19:34.318Z,19.95
2023-09-06T15:22:08.125Z,19.39
2023-09-06T15:24:34.830Z,19.17
2023-09-06T15:27:01.452Z,19.04
2023-09-06T15:29:54.156Z,18.94
2023-09-06T15:32:22.841Z,18.82
2023-09-06T15:34:50.626Z,18.74
2023-09-06T15:37:17.373Z,18.70
2023-09-06T15:39:46.694Z,18.49
2023-09-06T15:42:13.465Z,18.36
2023-09-06T15:44:43.326Z,18.37
2023-09-06T15:47:14.513Z,18.40
2023-09-06T15:49:41.047Z,18.30
2023-09-06T15:52:08.401Z,18.30
2023-09-06T15:54:35.058Z,18.33
2023-09-06T15:57:14.950Z,18.22
2023-09-06T15:59:41.550Z,18.13
2023-09-06T16:02:08.249Z,18.17
2023-09-06T16:04:35.022Z,18.16
2023-09-06T16:07:01.721Z,18.09
2023-09-06T16:09:28.264Z,18.10
2023-09-06T16:11:58.031Z,18.07
2023-09-06T16:14:26.062Z,18.01
2023-09-06T16:16:52.908Z,18.24
2023-09-06T16:19:22.242Z,18.18
2023-09-06T16:21:49.373Z,18.38
2023-09-06T16:24:16.074Z,18.41
2023-09-06T16:26:45.320Z,18.46
2023-09-06T16:29:12.840Z,18.48
2023-09-06T16:31:39.444Z,18.53
2023-09-06T16:34:06.115Z,18.46
2023-09-06T16:36:33.299Z,18.33
2023-09-06T16:38:59.986Z,18.51
2023-09-06T16:41:26.943Z,18.53
2023-09-06T16:43:53.754Z,18.56
2023-09-06T16:46:20.875Z,18.46
2023-09-06T16:48:57.121Z,18.50
2023-09-06T16:51:26.543Z,18.53
2023-09-06T16:53:53.312Z,18.47
2023-09-06T16:56:31.913Z,18.50
2023-09-06T16:58:58.555Z,18.41
2023-09-06T17:01:31.302Z,18.46
2023-09-06T17:03:58.064Z,18.41
2023-09-06T17:06:30.981Z,18.36
2023-09-06T17:08:58.247Z,18.47
2023-09-06T17:11:24.898Z,18.40
2023-09-06T17:13:54.553Z,18.38
2023-09-06T17:16:29.931Z,18.35
2023-09-06T17:19:01.905Z,18.42
2023-09-06T17:21:28.514Z,18.40
2023-09-06T17:24:03.480Z,18.41
2023-09-06T17:26:58.426Z,18.39
2023-09-06T17:29:29.772Z,18.44
2023-09-06T17:31:56.499Z,18.46
2023-09-06T17:34:23.171Z,19.44
2023-09-06T17:36:49.699Z,20.28
2023-09-06T17:39:16.431Z,18.87
2023-09-06T17:41:43.149Z,18.60
2023-09-06T17:44:09.743Z,18.40
2023-09-06T17:46:36.545Z,18.38
2023-09-06T17:49:07.409Z,18.46
2023-09-06T17:51:35.778Z,18.38
2023-09-06T17:54:03.792Z,18.42
2023-09-06T17:56:30.584Z,18.36
2023-09-06T17:58:58.009Z,18.27
2023-09-06T18:01:25.201Z,18.20
2023-09-06T18:03:59.405Z,18.23
2023-09-06T18:06:27.585Z,18.21
2023-09-06T18:08:59.412Z,18.32
2023-09-06T18:11:26.404Z,18.21
2023-09-06T18:13:53.313Z,18.54
2023-09-06T18:16:20.285Z,18.84
2023-09-06T18:18:47.351Z,18.51
2023-09-06T18:21:15.518Z,18.43
2023-09-06T18:24:15.317Z,18.44
2023-09-06T18:26:48.542Z,18.47
2023-09-06T18:30:09.217Z,18.57
2023-09-06T18:32:35.969Z,19.17
2023-09-06T18:35:09.480Z,18.73
2023-09-06T18:37:36.937Z,18.60
2023-09-06T18:40:13.803Z,18.54
2023-09-06T18:42:41.056Z,18.49
2023-09-06T18:45:11.734Z,18.51
2023-09-06T18:47:43.017Z,18.49
2023-09-06T18:50:10.550Z,18.39
2023-09-06T18:52:37.347Z,18.39
2023-09-06T18:55:05.112Z,18.34
2023-09-06T18:57:35.012Z,18.30
2023-09-06T19:00:01.511Z,19.00
2023-09-06T19:02:28.139Z,19.25
2023-09-06T19:04:54.876Z,18.51
2023-09-06T19:07:21.747Z,18.29
2023-09-06T19:09:48.798Z,18.27
2023-09-06T19:12:16.982Z,18.10
2023-09-06T19:14:43.650Z,18.25
2023-09-06T19:17:10.380Z,18.25
2023-09-06T19:19:39.719Z,18.29
2023-09-06T19:22:07.845Z,18.24
2023-09-06T19:24:34.857Z,18.25
2023-09-06T19:27:02.114Z,18.24
2023-09-06T19:29:28.796Z,18.25
2023-09-06T19:31:55.461Z,18.25
2023-09-06T19:34:22.063Z,18.18
2023-09-06T19:36:48.647Z,18.15
2023-09-06T19:39:17.461Z,18.22
2023-09-06T19:41:44.027Z,18.20
2023-09-06T19:44:10.719Z,18.29
2023-09-06T19:46:37.421Z,18.23
2023-09-06T19:49:06.619Z,18.20
2023-09-06T19:51:41.256Z,18.23
2023-09-06T19:54:17.872Z,18.24
2023-09-06T19:56:44.573Z,18.29
2023-09-06T19:59:19.738Z,18.30
2023-09-06T20:01:50.963Z,18.25
2023-09-06T20:04:21.345Z,18.19
2023-09-06T20:06:48.166Z,18.21
2023-09-06T20:09:17.923Z,18.18
2023-09-06T20:11:44.675Z,18.31
2023-09-06T20:14:12.836Z,18.15
2023-09-06T20:16:42.654Z,18.21
2023-09-06T20:19:09.430Z,18.23
2023-09-06T20:21:44.960Z,18.18
2023-09-06T20:24:11.671Z,18.07
2023-09-06T20:26:38.501Z,18.09
2023-09-06T20:29:17.252Z,18.14
2023-09-06T20:31:44.157Z,18.09
2023-09-06T20:34:10.968Z,18.15
2023-09-06T20:36:40.697Z,18.26
2023-09-06T20:39:11.706Z,18.36
2023-09-06T20:41:51.354Z,18.48
2023-09-06T20:44:22.315Z,18.39
2023-09-06T20:46:56.401Z,18.39
2023-09-06T20:49:23.126Z,18.32
2023-09-06T20:51:49.984Z,18.22
2023-09-06T20:54:16.584Z,18.20
2023-09-06T20:56:43.262Z,18.29
2023-09-06T20:59:09.833Z,18.27
2023-09-06T21:01:36.501Z,18.25
2023-09-06T21:04:03.309Z,18.15
2023-09-06T21:06:30.207Z,18.06
2023-09-06T21:08:57.967Z,18.11
2023-09-06T21:11:24.672Z,18.17
2023-09-06T21:13:52.658Z,18.16
2023-09-06T21:16:19.390Z,18.18
2023-09-06T21:18:46.092Z,18.36
2023-09-06T21:21:12.749Z,18.23
2023-09-06T21:23:39.369Z,18.21
2023-09-06T21:26:06.887Z,18.24
2023-09-06T21:28:33.618Z,18.29
2023-09-06T21:31:02.718Z,18.35
2023-09-06T21:33:29.369Z,18.25
2023-09-06T21:35:56.014Z,18.24
2023-09-06T21:38:22.566Z,18.26
2023-09-06T21:40:49.107Z,18.20
2023-09-06T21:43:18.906Z,18.30
2023-09-06T21:45:46.000Z,18.38
2023-09-06T21:48:12.930Z,18.40
2023-09-06T21:50:40.188Z,18.41
2023-09-06T21:53:06.944Z,18.40
2023-09-06T21:55:33.514Z,18.46
2023-09-06T21:58:08.655Z,18.43
2023-09-06T22:00:37.462Z,18.35
2023-09-06T22:03:04.501Z,18.47
2023-09-06T22:05:31.230Z,18.46
2023-09-06T22:07:57.889Z,18.40
2023-09-06T22:10:24.695Z,18.40
2023-09-06T22:12:51.417Z,18.28
2023-09-06T22:15:18.116Z,18.29
2023-09-06T22:17:44.856Z,18.38
2023-09-06T22:20:11.526Z,18.25
2023-09-06T22:22:38.265Z,18.40
2023-09-06T22:25:08.045Z,18.38
2023-09-06T22:28:10.238Z,18.40
2023-09-06T22:31:25.318Z,18.42
2023-09-06T22:33:51.956Z,18.41
2023-09-06T22:36:18.523Z,18.47
2023-09-06T22:38:45.737Z,18.43
2023-09-06T22:41:12.262Z,18.40
2023-09-06T22:43:38.907Z,18.36
2023-09-06T22:46:05.625Z,18.38
2023-09-06T22:48:48.034Z,18.46
2023-09-06T22:51:19.176Z,18.53
2023-09-06T22:53:45.830Z,18.30
2023-09-06T22:56:12.398Z,18.06
2023-09-06T22:58:39.031Z,17.80
2023-09-06T23:01:06.717Z,17.70
2023-09-06T23:03:35.654Z,17.72
2023-09-06T23:06:03.378Z,18.07
2023-09-06T23:08:30.271Z,18.65
2023-09-06T23:11:01.181Z,20.14
2023-09-06T23:13:27.881Z,19.72
2023-09-06T23:15:54.546Z,19.34
2023-09-06T23:18:23.684Z,19.38
2023-09-06T23:20:52.341Z,19.20
2023-09-06T23:23:22.322Z,19.23
2023-09-06T23:25:52.321Z,19.10
2023-09-06T23:28:22.852Z,20.00
2023-09-06T23:30:55.235Z,19.96
2023-09-06T23:33:41.002Z,19.42
2023-09-06T23:36:10.472Z,19.27
2023-09-06T23:38:37.147Z,19.11
2023-09-06T23:41:06.716Z,19.00
2023-09-06T23:43:34.222Z,19.78
2023-09-06T23:46:04.808Z,20.02
2023-09-06T23:48:32.010Z,19.48
2023-09-06T23:50:59.044Z,19.26
2023-09-06T23:53:27.147Z,19.11
2023-09-06T23:55:54.102Z,19.09
2023-09-06T23:58:20.812Z,19.29
